Time;durP1;ratioP1;P1;durP2;ratioP2;P2;SDS_P1;SDS_P2;PMS_P1;PMS_P2;Temp;Humidity;BMP_temperature;BMP_pressure;BME280_temperature;BME280_humidity;BME280_pressure;Samples;Min_cycle;Max_cycle;Signal;HPM_P1;HPM_P2
2021/04/25 00:00:22;;;;;;;5.97;5.37;;;11.20;57.80;;;;;;10435084;28;20232;-78
2021/04/25 00:05:24;;;;;;;5.53;4.70;;;11.10;58.00;;;;;;10435992;28;20270;-78
2021/04/25 00:10:26;;;;;;;6.83;5.40;;;11.10;58.30;;;;;;10437415;28;20225;-78
2021/04/25 00:15:29;;;;;;;6.20;4.90;;;11.00;58.60;;;;;;10436898;28;20201;-78
2021/04/25 00:20:31;;;;;;;6.13;4.77;;;11.00;59.00;;;;;;10419790;28;20228;-78
2021/04/25 00:25:32;;;;;;;6.87;5.40;;;10.90;59.00;;;;;;10438142;28;20220;-78
2021/04/25 00:30:35;;;;;;;5.87;5.27;;;10.90;59.30;;;;;;10433270;28;20684;-78
2021/04/25 00:35:39;;;;;;;7.50;5.47;;;10.90;59.40;;;;;;10427457;28;20808;-78
2021/04/25 00:40:40;;;;;;;6.13;5.43;;;10.80;59.60;;;;;;10432695;28;20233;-78
2021/04/25 00:45:43;;;;;;;6.30;5.00;;;10.80;59.80;;;;;;10426965;28;20216;-78
2021/04/25 00:50:44;;;;;;;7.63;4.70;;;10.70;60.00;;;;;;10445267;28;20219;-78
2021/04/25 00:55:47;;;;;;;9.10;4.77;;;10.70;60.40;;;;;;10409557;28;20266;-78
2021/04/25 01:00:49;;;;;;;5.63;4.63;;;10.60;60.40;;;;;;10444737;28;20348;-78
2021/04/25 01:05:51;;;;;;;5.87;4.90;;;10.60;60.60;;;;;;10448020;28;20292;-78
2021/04/25 01:10:53;;;;;;;5.30;4.60;;;10.50;60.90;;;;;;10429208;28;20701;-78
2021/04/25 01:15:56;;;;;;;4.93;4.53;;;10.50;61.20;;;;;;10450624;28;20205;-78
2021/04/25 01:21:00;;;;;;;5.80;4.60;;;10.40;61.20;;;;;;10459057;28;20256;-78
2021/04/25 01:26:01;;;;;;;5.73;5.07;;;10.30;61.30;;;;;;10422749;28;20296;-78
2021/04/25 01:31:03;;;;;;;5.77;5.17;;;10.20;61.90;;;;;;10451359;28;20241;-78
2021/04/25 01:36:07;;;;;;;11.03;5.57;;;10.10;62.00;;;;;;10457134;28;20255;-78
2021/04/25 01:41:09;;;;;;;6.43;4.73;;;10.00;62.40;;;;;;10457549;28;20240;-78
2021/04/25 01:46:11;;;;;;;5.23;4.57;;;10.00;62.60;;;;;;10456210;28;20583;-78
2021/04/25 01:51:13;;;;;;;5.43;4.93;;;10.00;62.80;;;;;;10456223;28;20295;-78
2021/04/25 01:56:15;;;;;;;6.03;5.10;;;9.90;63.80;;;;;;10456011;28;20210;-78
2021/04/25 02:01:17;;;;;;;6.63;5.10;;;9.90;64.20;;;;;;10438209;28;20225;-78
2021/04/25 02:06:19;;;;;;;5.93;5.43;;;9.80;64.30;;;;;;10455427;28;20228;-78
2021/04/25 02:11:21;;;;;;;5.53;4.97;;;9.80;64.70;;;;;;10437818;28;20217;-78
2021/04/25 02:16:23;;;;;;;6.03;4.63;;;9.70;64.60;;;;;;10454929;28;20201;-78
2021/04/25 02:21:25;;;;;;;6.13;5.10;;;9.70;65.10;;;;;;10421053;28;20570;-78
2021/04/25 02:26:27;;;;;;;5.13;4.67;;;9.70;64.90;;;;;;10454611;28;20601;-78
2021/04/25 02:31:28;;;;;;;6.30;5.57;;;9.60;65.00;;;;;;10464893;28;20221;-78
2021/04/25 02:36:31;;;;;;;7.50;5.63;;;9.60;65.30;;;;;;10463073;28;20201;-78
2021/04/25 02:41:33;;;;;;;6.90;5.03;;;9.50;65.60;;;;;;10431689;28;20231;-78
2021/04/25 02:46:35;;;;;;;5.10;4.60;;;9.50;65.60;;;;;;10455709;28;20316;-78
2021/04/25 02:51:37;;;;;;;5.40;4.90;;;9.40;65.70;;;;;;10454894;28;20228;-78
2021/04/25 02:56:39;;;;;;;6.10;5.10;;;9.40;66.10;;;;;;10420926;28;20688;-78
2021/04/25 03:01:41;;;;;;;7.43;5.23;;;9.30;66.00;;;;;;10452522;28;20701;-78
2021/04/25 03:06:43;;;;;;;6.43;5.83;;;9.30;66.60;;;;;;10458208;28;20223;-78
2021/04/25 03:11:45;;;;;;;6.03;5.13;;;9.20;66.20;;;;;;10436774;28;20627;-78
2021/04/25 03:16:46;;;;;;;5.90;5.30;;;9.20;66.50;;;;;;10435311;28;20208;-78
2021/04/25 03:21:49;;;;;;;7.13;5.90;;;9.10;66.50;;;;;;10428554;28;20312;-78
2021/04/25 03:26:50;;;;;;;7.00;5.87;;;9.00;67.00;;;;;;10452548;28;20209;-78
2021/04/25 03:31:52;;;;;;;6.63;5.93;;;9.00;66.90;;;;;;10436112;28;20316;-79
2021/04/25 03:36:54;;;;;;;6.40;5.80;;;9.00;67.30;;;;;;10439521;28;20205;-79
2021/04/25 03:41:56;;;;;;;6.57;5.90;;;9.00;67.10;;;;;;10458334;28;20240;-79
2021/04/25 03:46:59;;;;;;;6.03;5.10;;;9.00;67.20;;;;;;10459606;28;20193;-79
2021/04/25 03:52:02;;;;;;;7.43;5.90;;;9.00;67.30;;;;;;10457759;28;20221;-79
2021/04/25 03:57:05;;;;;;;6.60;5.90;;;9.00;67.40;;;;;;10423069;28;20731;-79
2021/04/25 04:02:06;;;;;;;6.03;5.47;;;8.90;67.90;;;;;;10439811;28;20248;-79
2021/04/25 04:07:09;;;;;;;5.93;5.10;;;8.80;68.20;;;;;;10459086;28;20252;-79
2021/04/25 04:12:12;;;;;;;6.53;5.43;;;8.80;68.40;;;;;;10449471;28;20221;-79
2021/04/25 04:17:14;;;;;;;6.17;5.67;;;8.80;68.30;;;;;;10467277;28;20201;-79
2021/04/25 04:22:16;;;;;;;6.30;5.53;;;8.70;68.50;;;;;;10466868;28;20225;-79
2021/04/25 04:27:21;;;;;;;6.17;5.60;;;8.60;68.80;;;;;;10447447;28;20221;-79
2021/04/25 04:32:22;;;;;;;7.03;5.70;;;8.60;69.10;;;;;;10467535;28;20307;-78
2021/04/25 04:37:25;;;;;;;9.17;7.00;;;8.60;69.50;;;;;;10471750;28;20219;-79
2021/04/25 04:42:26;;;;;;;6.30;5.70;;;8.50;69.00;;;;;;10446996;28;20229;-79
2021/04/25 04:47:28;;;;;;;6.77;6.17;;;8.50;69.20;;;;;;10463971;28;20209;-79
2021/04/25 04:52:30;;;;;;;6.43;5.77;;;8.60;69.20;;;;;;10464016;28;20249;-79
2021/04/25 04:57:32;;;;;;;8.33;6.37;;;8.60;69.30;;;;;;10463825;28;20611;-79
2021/04/25 05:02:34;;;;;;;6.80;6.13;;;8.50;69.90;;;;;;10450771;28;20647;-78
2021/04/25 05:07:37;;;;;;;12.63;6.37;;;8.50;69.90;;;;;;10463442;28;20261;-78
2021/04/25 05:12:38;;;;;;;7.73;6.20;;;8.60;69.80;;;;;;10448364;28;20272;-77
2021/04/25 05:17:40;;;;;;;8.03;6.30;;;8.50;69.90;;;;;;10460739;28;20201;-77
2021/04/25 05:22:43;;;;;;;7.97;6.43;;;8.50;70.40;;;;;;10457362;28;20263;-78
2021/04/25 05:27:44;;;;;;;7.97;6.33;;;8.60;70.30;;;;;;10441732;28;20389;-77
2021/04/25 05:32:46;;;;;;;8.80;6.40;;;8.60;70.60;;;;;;10460311;28;20243;-77
2021/04/25 05:37:48;;;;;;;7.00;5.93;;;8.70;70.60;;;;;;10434366;28;20232;-77
2021/04/25 05:42:50;;;;;;;7.37;5.93;;;8.80;71.00;;;;;;10459475;28;20240;-77
2021/04/25 05:47:53;;;;;;;8.50;6.50;;;8.90;70.80;;;;;;10441152;28;20605;-77
2021/04/25 05:52:56;;;;;;;6.97;5.80;;;9.00;69.30;;;;;;10459269;28;20217;-77
2021/04/25 05:57:58;;;;;;;10.13;8.07;;;9.10;69.20;;;;;;10459122;28;20209;-78
2021/04/25 06:02:59;;;;;;;8.60;7.70;;;9.30;68.40;;;;;;10440306;28;20247;-77
2021/04/25 06:08:02;;;;;;;8.17;7.33;;;9.40;69.00;;;;;;10423482;28;20752;-78
2021/04/25 06:13:04;;;;;;;8.30;7.50;;;9.60;68.20;;;;;;10439609;28;20249;-77
2021/04/25 06:18:06;;;;;;;8.13;7.00;;;9.70;68.00;;;;;;10439787;28;20748;-77
2021/04/25 06:23:08;;;;;;;8.40;7.30;;;9.90;67.40;;;;;;10440441;28;20233;-78
2021/04/25 06:28:10;;;;;;;12.60;8.43;;;10.00;65.70;;;;;;10439544;28;20288;-77
2021/04/25 06:33:13;;;;;;;9.60;7.50;;;10.10;64.90;;;;;;10423014;28;20225;-77
2021/04/25 06:38:15;;;;;;;8.77;7.97;;;10.20;65.20;;;;;;10455502;28;20292;-78
2021/04/25 06:43:18;;;;;;;9.43;8.43;;;10.30;65.60;;;;;;10447321;28;20225;-77
2021/04/25 06:48:19;;;;;;;10.23;8.40;;;10.40;65.50;;;;;;10459920;28;20197;-77
2021/04/25 06:53:22;;;;;;;11.13;8.40;;;10.50;64.70;;;;;;10459896;28;20252;-77
2021/04/25 06:58:24;;;;;;;13.17;8.17;;;10.60;64.70;;;;;;10459313;28;20228;-78
2021/04/25 07:03:25;;;;;;;12.30;9.13;;;10.70;64.70;;;;;;10458528;28;20232;-78
2021/04/25 07:08:28;;;;;;;18.20;9.30;;;10.80;64.00;;;;;;10458025;28;20211;-79
2021/04/25 07:13:30;;;;;;;9.67;8.67;;;10.90;63.80;;;;;;10439445;28;20217;-76
2021/04/25 07:18:31;;;;;;;10.23;9.13;;;11.00;64.10;;;;;;10457622;28;20201;-77
2021/04/25 07:23:34;;;;;;;15.37;10.13;;;11.10;64.60;;;;;;10454995;28;20279;-78
2021/04/25 07:28:37;;;;;;;11.37;10.23;;;11.20;64.50;;;;;;10455260;28;20284;-78
2021/04/25 07:33:39;;;;;;;16.03;11.03;;;11.50;64.30;;;;;;10456751;28;20252;-79
2021/04/25 07:38:42;;;;;;;14.60;11.70;;;12.00;62.80;;;;;;10454464;28;20720;-78
2021/04/25 07:43:43;;;;;;;12.97;11.07;;;12.50;61.50;;;;;;10456772;28;20231;-79
2021/04/25 07:48:45;;;;;;;14.30;11.00;;;12.90;60.00;;;;;;10456257;28;20259;-78
2021/04/25 07:53:51;;;;;;;11.27;10.00;;;13.30;59.70;;;;;;10421032;28;20252;-78
2021/04/25 07:58:52;;;;;;;9.97;9.07;;;13.70;59.20;;;;;;10454844;28;20623;-79
2021/04/25 08:03:54;;;;;;;12.33;10.53;;;14.00;58.80;;;;;;10435033;28;20340;-79
2021/04/25 08:08:57;;;;;;;12.17;10.70;;;14.40;56.70;;;;;;10435515;28;20669;-77
2021/04/25 08:13:58;;;;;;;13.37;9.90;;;14.50;57.60;;;;;;10456434;28;20225;-78
2021/04/25 08:19:00;;;;;;;11.10;10.00;;;14.70;56.60;;;;;;10455084;28;20252;-79
2021/04/25 08:24:03;;;;;;;13.07;9.73;;;15.10;55.90;;;;;;10439872;28;20632;-79
2021/04/25 08:29:05;;;;;;;14.33;10.70;;;15.40;56.10;;;;;;10457371;28;20280;-79
2021/04/25 08:34:10;;;;;;;10.30;9.27;;;15.80;55.30;;;;;;10757482;22;20238;-77
2021/04/25 08:39:12;;;;;;;15.20;10.60;;;16.00;54.20;;;;;;10495639;28;20225;-78
2021/04/25 08:44:19;;;;;;;11.03;9.93;;;16.30;54.00;;;;;;10478380;28;20736;-78
2021/04/25 08:49:24;;;;;;;13.13;9.80;;;16.50;53.10;;;;;;10448301;28;20205;-78
2021/04/25 08:54:27;;;;;;;11.03;9.77;;;16.70;54.00;;;;;;10446643;28;20724;-78
2021/04/25 08:59:29;;;;;;;11.50;10.30;;;17.00;53.20;;;;;;10477153;28;20701;-79
2021/04/25 09:04:30;;;;;;;12.90;10.60;;;17.00;52.00;;;;;;10451700;28;20336;-79
2021/04/25 09:09:44;;;;;;;12.87;10.00;;;17.20;52.20;;;;;;10465953;28;20912;-79
2021/04/25 09:14:46;;;;;;;10.77;9.67;;;17.40;51.70;;;;;;10479242;28;20247;-79
2021/04/25 09:19:53;;;;;;;10.50;8.73;;;17.70;51.10;;;;;;10443087;28;20234;-78
2021/04/25 09:25:08;;;;;;;9.67;8.60;;;17.90;50.20;;;;;;10486987;28;20224;-78
2021/04/25 09:30:11;;;;;;;8.37;7.57;;;18.20;50.20;;;;;;10476016;28;20204;-78
2021/04/25 09:35:15;;;;;;;8.47;7.67;;;18.40;48.90;;;;;;10492235;22;20719;-82
2021/04/25 09:40:22;;;;;;;11.63;7.97;;;18.60;48.30;;;;;;10454456;28;20606;-80
2021/04/25 09:45:25;;;;;;;14.40;8.70;;;18.70;48.70;;;;;;10457311;28;20247;-82
2021/04/25 09:50:30;;;;;;;8.67;7.80;;;18.90;48.30;;;;;;10441729;28;20665;-81
2021/04/25 09:55:34;;;;;;;8.07;7.23;;;19.00;48.00;;;;;;10450932;28;20213;-81
2021/04/25 10:00:40;;;;;;;7.90;7.10;;;19.20;47.50;;;;;;10436231;28;20225;-82
2021/04/25 10:05:56;;;;;;;8.93;6.27;;;19.40;45.90;;;;;;10462091;28;20209;-82
2021/04/25 10:11:02;;;;;;;7.33;6.60;;;19.60;45.90;;;;;;10447218;28;20230;-81
2021/04/25 10:16:04;;;;;;;9.17;6.87;;;19.50;44.30;;;;;;10462325;28;20205;-81
2021/04/25 10:21:07;;;;;;;9.37;8.37;;;19.20;45.50;;;;;;10446211;28;20995;-81
2021/04/25 10:26:11;;;;;;;10.93;7.90;;;18.60;45.90;;;;;;10444813;28;20200;-79
2021/04/25 10:31:15;;;;;;;7.10;6.40;;;17.90;47.30;;;;;;10467667;28;20244;-82
2021/04/25 10:36:16;;;;;;;7.83;7.00;;;17.40;47.40;;;;;;10447718;28;20636;-81
2021/04/25 10:41:24;;;;;;;9.20;8.00;;;17.00;48.20;;;;;;10486680;28;20232;-80
2021/04/25 10:46:27;;;;;;;7.43;6.53;;;16.70;47.70;;;;;;10494723;28;20221;-80
2021/04/25 10:51:42;;;;;;;9.70;6.97;;;16.30;48.60;;;;;;10441514;28;20275;-82
2021/04/25 10:57:08;;;;;;;6.80;6.10;;;16.10;48.60;;;;;;10437037;28;20546;-81
2021/04/25 11:02:10;;;;;;;7.40;6.10;;;15.90;46.60;;;;;;10429549;28;20697;-83
2021/04/25 11:07:43;;;;;;;7.23;6.50;;;15.70;48.60;;;;;;10443282;28;20291;-82
2021/04/25 11:12:47;;;;;;;7.30;5.93;;;15.60;47.60;;;;;;10468530;28;20232;-81
2021/04/25 11:17:49;;;;;;;7.63;6.93;;;15.50;49.60;;;;;;10431760;28;20205;-80
2021/04/25 11:22:50;;;;;;;8.63;7.73;;;15.40;48.80;;;;;;10429547;28;20233;-81
2021/04/25 11:27:53;;;;;;;9.17;6.40;;;15.40;49.90;;;;;;10450094;28;20201;-83
2021/04/25 11:32:55;;;;;;;8.00;6.47;;;15.40;50.60;;;;;;10435883;28;20788;-83
2021/04/25 11:38:06;;;;;;;7.83;6.20;;;15.40;49.30;;;;;;10461505;28;20197;-81
2021/04/25 11:43:09;;;;;;;5.33;4.83;;;15.50;49.50;;;;;;10454089;28;20327;-82
2021/04/25 11:48:11;;;;;;;4.83;4.40;;;15.50;49.20;;;;;;10480741;28;20209;-81
2021/04/25 11:53:30;;;;;;;6.93;5.30;;;15.50;48.90;;;;;;10483145;28;20708;-83
2021/04/25 11:58:33;;;;;;;6.40;5.27;;;15.50;46.70;;;;;;10499712;28;20209;-82
2021/04/25 12:03:48;;;;;;;6.67;4.40;;;15.50;47.20;;;;;;10474439;28;20779;-82
2021/04/25 12:08:51;;;;;;;6.57;4.90;;;15.50;46.30;;;;;;10491156;28;20685;-83
2021/04/25 12:13:54;;;;;;;7.53;5.20;;;15.50;46.60;;;;;;10478328;28;20238;-83
2021/04/25 12:18:56;;;;;;;8.10;4.53;;;15.50;47.40;;;;;;10472351;28;20303;-81
2021/04/25 12:24:00;;;;;;;5.23;4.73;;;15.50;46.80;;;;;;10487687;28;20637;-79
2021/04/25 12:29:09;;;;;;;6.73;5.30;;;15.50;46.50;;;;;;10464048;28;20197;-79
2021/04/25 12:34:14;;;;;;;4.67;4.00;;;15.50;46.50;;;;;;10478550;28;20228;-82
2021/04/25 12:39:18;;;;;;;4.13;3.73;;;15.50;45.20;;;;;;10497590;28;20311;-80
2021/04/25 12:44:37;;;;;;;4.53;4.13;;;15.50;44.10;;;;;;10496806;28;20309;-82
2021/04/25 12:49:40;;;;;;;4.33;3.93;;;15.50;44.60;;;;;;10497718;28;20220;-80
2021/04/25 12:54:43;;;;;;;3.80;3.50;;;15.50;44.00;;;;;;10470584;28;20692;-81
2021/04/25 12:59:45;;;;;;;4.33;3.67;;;15.60;44.10;;;;;;10478588;28;20221;-81
2021/04/25 13:04:48;;;;;;;4.30;3.90;;;15.50;44.40;;;;;;10505992;28;20224;-82
2021/04/25 13:10:27;;;;;;;4.13;3.43;;;15.50;44.00;;;;;;10479553;28;20201;-80
2021/04/25 13:15:35;;;;;;;3.93;3.63;;;15.50;42.80;;;;;;10416043;28;20728;-81
2021/04/25 13:20:39;;;;;;;3.67;3.40;;;15.60;42.90;;;;;;10444140;28;20228;-81
2021/04/25 13:25:44;;;;;;;3.90;3.60;;;15.60;39.10;;;;;;10468692;28;20390;-79
2021/04/25 13:30:49;;;;;;;3.30;3.10;;;15.60;39.10;;;;;;10468824;28;20676;-82
2021/04/25 13:35:51;;;;;;;3.47;3.17;;;15.60;38.80;;;;;;10464798;28;20189;-79
2021/04/25 13:40:55;;;;;;;4.00;3.27;;;15.60;40.40;;;;;;10472524;28;20233;-80
2021/04/25 13:45:59;;;;;;;4.37;3.50;;;15.60;37.80;;;;;;10498568;28;20211;-81
2021/04/25 13:51:02;;;;;;;3.40;3.10;;;15.70;37.80;;;;;;10473204;28;20220;-79
2021/04/25 13:56:04;;;;;;;4.60;2.93;;;15.70;38.90;;;;;;10528848;28;20200;-80
2021/04/25 14:01:07;;;;;;;4.17;2.97;;;15.80;40.20;;;;;;10482420;28;20232;-79
2021/04/25 14:06:09;;;;;;;5.13;3.00;;;15.70;38.00;;;;;;10454493;28;20213;-79
2021/04/25 14:11:14;;;;;;;2.77;2.57;;;15.80;39.70;;;;;;10471911;28;20248;-79
2021/04/25 14:16:17;;;;;;;3.13;2.93;;;15.90;39.80;;;;;;10486088;28;20511;-80
2021/04/25 14:21:19;;;;;;;3.60;3.30;;;15.90;39.60;;;;;;10498428;28;20220;-83
2021/04/25 14:26:21;;;;;;;3.20;2.90;;;16.00;39.60;;;;;;10453971;28;20669;-83
2021/04/25 14:31:23;;;;;;;2.83;2.60;;;16.00;40.30;;;;;;10451448;28;20676;-83
2021/04/25 14:36:25;;;;;;;3.63;3.20;;;16.20;39.70;;;;;;10452812;28;20205;-83
2021/04/25 14:41:27;;;;;;;3.00;2.80;;;16.40;38.60;;;;;;10472011;28;20221;-83
2021/04/25 14:46:30;;;;;;;4.07;3.10;;;16.40;38.30;;;;;;10462661;28;20261;-84
2021/04/25 14:51:33;;;;;;;3.03;2.80;;;16.40;38.40;;;;;;10471451;28;20223;-81
2021/04/25 14:56:35;;;;;;;2.70;2.50;;;16.30;37.80;;;;;;10470515;28;20224;-83
2021/04/25 15:01:37;;;;;;;3.67;2.40;;;16.30;38.40;;;;;;10483433;28;20237;-80
2021/04/25 15:06:39;;;;;;;2.90;2.70;;;16.20;39.70;;;;;;10445359;28;20213;-83
2021/04/25 15:11:41;;;;;;;2.90;2.70;;;16.20;37.10;;;;;;10453498;28;20221;-83
2021/04/25 15:16:43;;;;;;;3.37;2.53;;;16.20;37.80;;;;;;10470112;28;20228;-82
2021/04/25 15:21:45;;;;;;;3.80;3.50;;;16.20;38.60;;;;;;10465122;28;20236;-81
2021/04/25 15:26:47;;;;;;;3.30;3.00;;;16.30;39.20;;;;;;10472550;28;20255;-83
2021/04/25 15:31:52;;;;;;;4.93;3.70;;;16.30;39.40;;;;;;10467319;22;20227;-78
2021/04/25 15:36:53;;;;;;;3.33;3.10;;;16.60;38.00;;;;;;10496693;28;20200;-78
2021/04/25 15:41:56;;;;;;;4.47;3.33;;;16.70;37.00;;;;;;10496323;28;20239;-78
2021/04/25 15:47:01;;;;;;;2.60;2.40;;;16.70;37.80;;;;;;10487248;28;20556;-78
2021/04/25 15:52:03;;;;;;;3.03;2.57;;;16.60;39.10;;;;;;10460138;28;20213;-78
2021/04/25 15:57:05;;;;;;;3.40;3.10;;;16.50;37.90;;;;;;10466456;28;20739;-78
2021/04/25 16:02:08;;;;;;;4.77;2.90;;;16.40;37.60;;;;;;10468203;28;20286;-78
2021/04/25 16:07:12;;;;;;;4.60;3.07;;;16.30;37.90;;;;;;10491005;28;20283;-78
2021/04/25 16:12:15;;;;;;;3.43;3.13;;;16.30;39.10;;;;;;10498821;28;20226;-78
2021/04/25 16:17:19;;;;;;;3.20;2.90;;;16.30;38.80;;;;;;10481392;28;20236;-77
2021/04/25 16:22:20;;;;;;;3.40;2.83;;;16.20;39.30;;;;;;10478128;28;20844;-78
2021/04/25 16:27:22;;;;;;;3.47;3.17;;;16.20;37.00;;;;;;10453444;28;20347;-78
2021/04/25 16:32:26;;;;;;;5.60;2.97;;;16.20;37.60;;;;;;10437375;28;20282;-78
2021/04/25 16:37:27;;;;;;;3.60;3.27;;;16.20;38.20;;;;;;10433370;28;20681;-78
2021/04/25 16:42:30;;;;;;;3.30;2.50;;;16.20;37.90;;;;;;10468618;28;20229;-79
2021/04/25 16:47:33;;;;;;;5.00;3.00;;;16.20;39.20;;;;;;10455159;28;20231;-78
2021/04/25 16:52:36;;;;;;;3.70;3.40;;;16.20;37.70;;;;;;10459011;28;20283;-78
2021/04/25 16:57:38;;;;;;;2.83;2.63;;;16.20;39.20;;;;;;10456356;28;20668;-78
2021/04/25 17:02:40;;;;;;;3.20;2.90;;;16.10;38.10;;;;;;10469433;28;20220;-78
2021/04/25 17:07:44;;;;;;;3.30;3.00;;;16.10;37.50;;;;;;10460338;28;20208;-78
2021/04/25 17:12:47;;;;;;;3.70;3.00;;;16.10;38.80;;;;;;10464881;28;20281;-78
2021/04/25 17:17:51;;;;;;;4.47;2.97;;;16.00;37.30;;;;;;10458398;28;20497;-78
2021/04/25 17:22:53;;;;;;;3.60;3.30;;;15.90;38.20;;;;;;10464859;28;20225;-78
2021/04/25 17:27:55;;;;;;;3.40;2.60;;;15.90;37.50;;;;;;10456116;28;20648;-78
2021/04/25 17:32:59;;;;;;;8.33;3.10;;;15.90;38.70;;;;;;10451677;28;20272;-78
2021/04/25 17:38:01;;;;;;;3.33;2.83;;;15.80;37.50;;;;;;10487900;28;20208;-78
2021/04/25 17:43:03;;;;;;;4.80;4.17;;;15.80;38.40;;;;;;10452461;28;20251;-78
2021/04/25 17:48:08;;;;;;;6.33;3.10;;;15.70;39.70;;;;;;10465829;28;20209;-78
2021/04/25 17:53:10;;;;;;;4.40;3.80;;;15.70;39.30;;;;;;10434317;28;20228;-78
2021/04/25 17:58:12;;;;;;;3.43;3.13;;;15.60;38.40;;;;;;10443800;28;20203;-78
2021/04/25 18:03:15;;;;;;;3.17;2.87;;;15.50;37.20;;;;;;10465088;28;20232;-78
2021/04/25 18:08:16;;;;;;;4.40;3.00;;;15.40;39.80;;;;;;10448214;28;20692;-78
2021/04/25 18:13:18;;;;;;;4.00;3.70;;;15.40;38.30;;;;;;10448351;28;20295;-78
2021/04/25 18:18:21;;;;;;;4.03;3.67;;;15.20;37.50;;;;;;10440489;28;20301;-78
2021/04/25 18:23:22;;;;;;;4.03;3.73;;;15.10;38.30;;;;;;10480887;28;20232;-78
2021/04/25 18:28:26;;;;;;;4.30;3.73;;;15.10;39.10;;;;;;10485246;28;20734;-78
2021/04/25 18:33:28;;;;;;;2.43;2.33;;;15.00;39.40;;;;;;10459167;28;20233;-78
2021/04/25 18:38:33;;;;;;;3.47;3.00;;;14.90;41.50;;;;;;10486981;28;20683;-77
2021/04/25 18:43:37;;;;;;;3.50;3.30;;;14.80;40.20;;;;;;10485812;28;20244;-78
2021/04/25 18:48:40;;;;;;;3.80;3.50;;;14.80;40.40;;;;;;10461878;28;20269;-78
2021/04/25 18:53:42;;;;;;;3.40;3.20;;;14.60;40.10;;;;;;10460084;28;20224;-78
2021/04/25 18:58:46;;;;;;;3.63;3.30;;;14.50;41.10;;;;;;10486012;28;20574;-78
2021/04/25 19:03:50;;;;;;;3.67;3.37;;;14.40;42.00;;;;;;10432425;28;20235;-78
2021/04/25 19:08:51;;;;;;;4.37;3.97;;;14.30;41.50;;;;;;10429162;28;20668;-78
2021/04/25 19:13:53;;;;;;;6.87;5.50;;;14.20;41.90;;;;;;10426785;28;20279;-78
2021/04/25 19:18:56;;;;;;;4.10;3.70;;;14.20;41.50;;;;;;10477118;28;20215;-78
2021/04/25 19:23:58;;;;;;;4.17;3.40;;;14.10;41.60;;;;;;10467897;28;20232;-78
2021/04/25 19:29:00;;;;;;;3.57;3.30;;;14.00;42.80;;;;;;10471299;28;20286;-78
2021/04/25 19:34:03;;;;;;;6.23;4.10;;;13.90;42.00;;;;;;10440177;28;20324;-78
2021/04/25 19:39:07;;;;;;;4.20;3.73;;;13.70;42.10;;;;;;10436083;28;20221;-78
2021/04/25 19:44:09;;;;;;;4.03;3.50;;;13.70;43.10;;;;;;10449031;28;20696;-78
2021/04/25 19:49:12;;;;;;;3.67;3.30;;;13.60;42.80;;;;;;10458099;28;20208;-78
2021/04/25 19:54:13;;;;;;;6.80;4.40;;;13.50;42.10;;;;;;10441184;28;20259;-78
2021/04/25 19:59:15;;;;;;;3.50;3.20;;;13.40;42.70;;;;;;10468414;28;20201;-78
2021/04/25 20:04:18;;;;;;;4.13;2.97;;;13.40;42.50;;;;;;10468708;28;20228;-78
2021/04/25 20:09:20;;;;;;;3.43;3.13;;;13.30;42.50;;;;;;10445455;28;20668;-78
2021/04/25 20:14:21;;;;;;;4.53;3.13;;;13.20;42.90;;;;;;10484884;28;20718;-78
2021/04/25 20:19:24;;;;;;;2.60;2.50;;;13.20;43.00;;;;;;10473481;28;20212;-77
2021/04/25 20:24:25;;;;;;;3.10;2.90;;;13.10;43.90;;;;;;10450748;28;20260;-78
2021/04/25 20:29:27;;;;;;;3.80;3.17;;;13.10;43.20;;;;;;10436511;28;20205;-78
2021/04/25 20:34:30;;;;;;;3.10;2.80;;;13.00;43.30;;;;;;10436365;28;20229;-78
2021/04/25 20:39:32;;;;;;;4.30;3.20;;;13.00;43.80;;;;;;10452121;28;20289;-78
2021/04/25 20:44:34;;;;;;;3.57;3.17;;;12.90;45.00;;;;;;10457303;28;20770;-78
2021/04/25 20:49:37;;;;;;;3.20;2.90;;;12.90;43.70;;;;;;10428212;28;20700;-78
2021/04/25 20:54:39;;;;;;;3.30;3.00;;;12.80;44.60;;;;;;10449333;28;20286;-78
2021/04/25 20:59:41;;;;;;;5.53;3.33;;;12.80;44.00;;;;;;10458514;28;20707;-78
2021/04/25 21:04:44;;;;;;;3.10;2.83;;;12.80;44.80;;;;;;10456947;28;20247;-78
2021/04/25 21:09:45;;;;;;;4.03;3.73;;;12.70;45.10;;;;;;10451191;28;20291;-78
2021/04/25 21:14:47;;;;;;;4.60;3.30;;;12.70;45.10;;;;;;10460805;28;20653;-77
2021/04/25 21:19:52;;;;;;;5.73;3.90;;;12.70;45.10;;;;;;10463242;28;20290;-78
2021/04/25 21:24:54;;;;;;;5.53;3.73;;;12.70;44.70;;;;;;10449868;28;20304;-77
2021/04/25 21:29:56;;;;;;;3.33;2.90;;;12.60;45.10;;;;;;10456765;28;20216;-78
2021/04/25 21:34:58;;;;;;;6.97;3.40;;;12.60;45.60;;;;;;10493285;22;20229;-76
2021/04/25 21:40:00;;;;;;;3.40;3.10;;;12.50;45.40;;;;;;10492016;28;20224;-79
2021/04/25 21:45:02;;;;;;;3.67;3.37;;;12.40;46.30;;;;;;10491898;28;20243;-77
2021/04/25 21:50:06;;;;;;;5.50;3.37;;;12.30;47.30;;;;;;10492509;28;20200;-78
2021/04/25 21:55:09;;;;;;;3.93;3.60;;;12.20;47.90;;;;;;10492173;28;20229;-77
2021/04/25 22:00:29;;;;;;;3.80;3.23;;;12.00;47.80;;;;;;10448171;28;20220;-76
2021/04/25 22:05:32;;;;;;;4.27;3.87;;;11.80;48.50;;;;;;10474314;28;20232;-78
2021/04/25 22:10:34;;;;;;;4.13;3.47;;;11.60;48.40;;;;;;10485950;28;20212;-77
2021/04/25 22:15:37;;;;;;;5.93;4.33;;;11.50;49.20;;;;;;10426797;28;20229;-79
2021/04/25 22:20:39;;;;;;;4.70;4.30;;;11.30;48.90;;;;;;10451723;28;20225;-80
2021/04/25 22:25:41;;;;;;;3.90;3.60;;;11.20;49.50;;;;;;10426053;28;20689;-77
2021/04/25 22:30:46;;;;;;;5.50;3.60;;;11.00;50.00;;;;;;10443199;28;20200;-76
2021/04/25 22:35:51;;;;;;;3.67;3.37;;;10.90;50.40;;;;;;10442922;28;20241;-78
2021/04/25 22:40:53;;;;;;;3.93;3.13;;;10.80;50.60;;;;;;10443297;28;20639;-78
2021/04/25 22:45:56;;;;;;;3.43;3.13;;;10.70;50.70;;;;;;10424102;28;20229;-79
2021/04/25 22:50:59;;;;;;;3.80;3.40;;;10.70;51.40;;;;;;10424694;28;20204;-79
2021/04/25 22:56:01;;;;;;;5.63;3.30;;;10.60;51.20;;;;;;10442487;28;20728;-80
2021/04/25 23:01:02;;;;;;;3.30;3.10;;;10.50;51.30;;;;;;10440932;28;20217;-78
2021/04/25 23:06:05;;;;;;;3.57;3.20;;;10.60;51.10;;;;;;10441405;28;20225;-78
2021/04/25 23:11:07;;;;;;;4.83;2.93;;;10.50;50.70;;;;;;10445226;28;20194;-78
2021/04/25 23:16:09;;;;;;;3.60;3.30;;;10.50;50.90;;;;;;10421005;28;20225;-77
2021/04/25 23:21:11;;;;;;;2.93;2.73;;;10.40;50.50;;;;;;10442852;28;20221;-79
2021/04/25 23:26:13;;;;;;;4.07;2.50;;;10.40;50.70;;;;;;10445813;28;20221;-77
2021/04/25 23:31:14;;;;;;;2.70;2.50;;;10.40;50.80;;;;;;10456281;28;20204;-79
2021/04/25 23:36:17;;;;;;;5.20;3.03;;;10.30;50.40;;;;;;10452666;28;20605;-79
2021/04/25 23:41:19;;;;;;;3.10;2.80;;;10.20;50.20;;;;;;10460514;28;20276;-79
2021/04/25 23:46:20;;;;;;;3.90;3.30;;;10.10;51.10;;;;;;10475748;28;20224;-78
2021/04/25 23:51:23;;;;;;;3.10;2.80;;;10.10;51.10;;;;;;10497627;28;20686;-78
2021/04/25 23:56:24;;;;;;;3.77;3.27;;;10.10;51.10;;;;;;10462450;28;20693;-78
